createdAt,value
2023-02-02T00:00:07.054Z,4.68
2023-02-02T00:02:30.694Z,4.65
2023-02-02T00:04:36.710Z,4.64
2023-02-02T00:06:43.498Z,4.62
2023-02-02T00:08:46.977Z,4.58
2023-02-02T00:10:51.142Z,4.55
2023-02-02T00:12:57.927Z,4.48
2023-02-02T00:15:02.443Z,4.46
2023-02-02T00:17:10.721Z,4.45
2023-02-02T00:19:22.046Z,4.44
2023-02-02T00:21:25.526Z,4.44
2023-02-02T00:23:31.053Z,4.43
2023-02-02T00:25:34.922Z,4.43
2023-02-02T00:27:37.530Z,4.41
2023-02-02T00:29:40.463Z,4.40
2023-02-02T00:31:44.631Z,4.40
2023-02-02T00:33:49.688Z,4.43
2023-02-02T00:35:53.798Z,4.44
2023-02-02T00:37:56.468Z,4.40
2023-02-02T00:39:59.184Z,4.35
2023-02-02T00:42:04.099Z,4.32
2023-02-02T00:44:26.149Z,4.32
2023-02-02T00:46:31.444Z,4.29
2023-02-02T00:48:34.197Z,4.24
2023-02-02T00:50:39.887Z,4.19
2023-02-02T00:52:42.874Z,4.13
2023-02-02T00:54:46.136Z,4.10
2023-02-02T00:56:48.874Z,4.13
2023-02-02T00:58:52.162Z,4.11
2023-02-02T01:00:55.914Z,4.11
2023-02-02T01:03:04.643Z,4.14
2023-02-02T01:05:08.975Z,4.13
2023-02-02T01:07:12.268Z,4.12
2023-02-02T01:09:15.454Z,4.14
2023-02-02T01:11:21.357Z,4.17
2023-02-02T01:13:24.074Z,4.19
2023-02-02T01:15:26.921Z,4.23
2023-02-02T01:17:29.861Z,4.23
2023-02-02T01:19:33.531Z,4.20
2023-02-02T01:21:37.301Z,4.21
2023-02-02T01:23:40.517Z,4.22
2023-02-02T01:25:43.082Z,4.24
2023-02-02T01:27:45.902Z,4.27
2023-02-02T01:29:50.481Z,4.28
2023-02-02T01:31:53.912Z,4.31
2023-02-02T01:33:57.389Z,4.35
2023-02-02T01:36:04.975Z,4.33
2023-02-02T01:38:07.611Z,4.31
2023-02-02T01:40:11.186Z,4.29
2023-02-02T01:42:27.433Z,4.28
2023-02-02T01:45:05.248Z,4.30
2023-02-02T01:47:08.846Z,4.31
2023-02-02T01:49:20.130Z,4.30
2023-02-02T01:51:29.167Z,4.28
2023-02-02T01:53:33.711Z,4.26
2023-02-02T01:55:40.750Z,4.27
2023-02-02T01:58:02.377Z,4.29
2023-02-02T02:00:10.952Z,4.33
2023-02-02T02:02:17.450Z,4.33
2023-02-02T02:04:22.224Z,4.32
2023-02-02T02:06:26.579Z,4.32
2023-02-02T02:08:36.878Z,4.34
2023-02-02T02:10:41.573Z,4.32
2023-02-02T02:12:44.811Z,4.30
2023-02-02T02:15:10.266Z,4.30
2023-02-02T02:17:25.690Z,4.31
2023-02-02T02:20:21.931Z,4.29
2023-02-02T02:22:56.421Z,4.26
2023-02-02T02:25:35.387Z,4.29
2023-02-02T02:27:48.297Z,4.33
2023-02-02T02:30:34.002Z,4.36
2023-02-02T02:32:52.709Z,4.40
2023-02-02T02:35:10.357Z,4.41
2023-02-02T02:37:16.414Z,4.41
2023-02-02T02:39:27.527Z,4.43
2023-02-02T02:41:40.360Z,4.42
2023-02-02T02:43:47.142Z,4.40
2023-02-02T02:45:50.706Z,4.34
2023-02-02T02:47:56.488Z,4.31
2023-02-02T02:50:02.295Z,4.28
2023-02-02T02:52:05.163Z,4.26
2023-02-02T02:54:21.668Z,4.25
2023-02-02T02:56:33.851Z,4.28
2023-02-02T02:59:03.253Z,4.31
2023-02-02T03:01:41.043Z,4.37
2023-02-02T03:04:12.054Z,4.42
2023-02-02T03:06:28.351Z,4.45
2023-02-02T03:08:40.757Z,4.48
2023-02-02T03:10:47.178Z,4.46
2023-02-02T03:12:51.999Z,4.46
2023-02-02T03:14:57.170Z,4.48
2023-02-02T03:17:00.324Z,4.49
2023-02-02T03:19:04.662Z,4.48
2023-02-02T03:21:07.756Z,4.48
2023-02-02T03:23:10.531Z,4.45
2023-02-02T03:25:13.771Z,4.42
2023-02-02T03:27:16.473Z,4.42
2023-02-02T03:29:19.411Z,4.42
2023-02-02T03:31:25.033Z,4.40
2023-02-02T03:33:28.455Z,4.38
2023-02-02T03:35:31.518Z,4.36
2023-02-02T03:37:35.314Z,4.38
2023-02-02T03:39:38.026Z,4.42
2023-02-02T03:41:40.662Z,4.43
2023-02-02T03:43:44.090Z,4.44
2023-02-02T03:45:47.981Z,4.47
2023-02-02T03:47:51.136Z,4.50
2023-02-02T03:49:53.737Z,4.53
2023-02-02T03:51:56.361Z,4.54
2023-02-02T03:53:59.138Z,4.55
2023-02-02T03:56:02.068Z,4.57
2023-02-02T03:58:04.822Z,4.58
2023-02-02T04:00:08.216Z,4.56
2023-02-02T04:02:32.998Z,4.54
2023-02-02T04:04:35.789Z,4.51
2023-02-02T04:06:40.101Z,4.52
2023-02-02T04:08:42.847Z,4.53
2023-02-02T04:10:45.699Z,4.54
2023-02-02T04:12:51.000Z,4.56
2023-02-02T04:14:54.044Z,4.56
2023-02-02T04:16:56.952Z,4.59
2023-02-02T04:18:59.678Z,4.60
2023-02-02T04:21:02.548Z,4.61
2023-02-02T04:23:05.425Z,4.63
2023-02-02T04:25:08.543Z,4.64
2023-02-02T04:27:11.516Z,4.64
2023-02-02T04:29:14.404Z,4.64
2023-02-02T04:31:17.409Z,4.63
2023-02-02T04:33:21.716Z,4.62
2023-02-02T04:35:26.862Z,4.61
2023-02-02T04:37:32.561Z,4.58
2023-02-02T04:39:35.692Z,4.58
2023-02-02T04:41:38.757Z,4.58
2023-02-02T04:43:41.719Z,4.59
2023-02-02T04:45:45.146Z,4.58
2023-02-02T04:47:47.979Z,4.58
2023-02-02T04:49:50.623Z,4.58
2023-02-02T04:51:53.336Z,4.59
2023-02-02T04:53:56.085Z,4.59
2023-02-02T04:56:06.978Z,4.60
2023-02-02T04:58:09.856Z,4.60
2023-02-02T05:00:13.473Z,4.60
2023-02-02T05:02:19.579Z,4.60
2023-02-02T05:04:24.249Z,4.61
2023-02-02T05:06:27.213Z,4.60
2023-02-02T05:08:31.141Z,4.59
2023-02-02T05:10:34.050Z,4.60
2023-02-02T05:12:36.875Z,4.61
2023-02-02T05:14:40.162Z,4.63
2023-02-02T05:16:43.867Z,4.64
2023-02-02T05:18:52.285Z,4.66
2023-02-02T05:20:55.227Z,4.67
2023-02-02T05:22:59.158Z,4.69
2023-02-02T05:25:02.474Z,4.73
2023-02-02T05:27:05.628Z,4.77
2023-02-02T05:29:09.230Z,4.79
2023-02-02T05:31:13.421Z,4.81
2023-02-02T05:33:22.281Z,4.83
2023-02-02T05:35:25.412Z,4.81
2023-02-02T05:37:29.260Z,4.81
2023-02-02T05:39:32.151Z,4.81
2023-02-02T05:41:35.086Z,4.80
2023-02-02T05:43:38.117Z,4.80
2023-02-02T05:45:42.331Z,4.80
2023-02-02T05:47:45.175Z,4.83
2023-02-02T05:49:49.236Z,4.85
2023-02-02T05:51:57.115Z,4.84
2023-02-02T05:54:01.100Z,4.86
2023-02-02T05:56:04.108Z,4.88
2023-02-02T05:58:07.013Z,4.88
2023-02-02T06:00:11.791Z,4.89
2023-02-02T06:02:20.324Z,4.89
2023-02-02T06:04:23.861Z,4.88
2023-02-02T06:06:26.688Z,4.89
2023-02-02T06:08:29.433Z,4.88
2023-02-02T06:10:32.187Z,4.89
2023-02-02T06:12:39.265Z,4.91
2023-02-02T06:14:42.081Z,4.94
2023-02-02T06:16:44.949Z,4.95
2023-02-02T06:18:48.871Z,4.96
2023-02-02T06:20:58.515Z,4.98
2023-02-02T06:23:01.217Z,5.00
2023-02-02T06:25:05.643Z,5.02
2023-02-02T06:27:11.558Z,5.05
2023-02-02T06:29:14.455Z,5.07
2023-02-02T06:31:19.728Z,5.06
2023-02-02T06:33:22.852Z,5.04
2023-02-02T06:35:25.801Z,5.04
2023-02-02T06:37:30.688Z,5.03
2023-02-02T06:39:35.066Z,5.04
2023-02-02T06:41:38.508Z,5.05
2023-02-02T06:43:43.602Z,5.07
2023-02-02T06:45:46.616Z,5.10
2023-02-02T06:47:52.785Z,5.12
2023-02-02T06:49:55.621Z,5.13
2023-02-02T06:52:00.273Z,5.14
2023-02-02T06:54:03.992Z,5.15
2023-02-02T06:56:08.909Z,5.16
2023-02-02T06:58:11.913Z,5.16
2023-02-02T07:00:15.142Z,5.18
2023-02-02T07:02:17.912Z,5.18
2023-02-02T07:04:20.724Z,5.16
2023-02-02T07:06:27.091Z,5.13
2023-02-02T07:08:29.793Z,5.11
2023-02-02T07:11:13.953Z,5.10
2023-02-02T07:12:55.137Z,5.11
2023-02-02T07:15:00.075Z,5.13
2023-02-02T07:17:03.246Z,5.15
2023-02-02T07:19:06.414Z,5.16
2023-02-02T07:21:15.609Z,5.17
2023-02-02T07:23:18.237Z,5.17
2023-02-02T07:25:24.229Z,5.17
2023-02-02T07:27:28.432Z,5.17
2023-02-02T07:29:31.627Z,5.17
2023-02-02T07:31:36.598Z,5.17
2023-02-02T07:33:41.811Z,5.17
2023-02-02T07:35:44.653Z,5.13
2023-02-02T07:37:58.768Z,5.12
2023-02-02T07:40:01.862Z,5.11
2023-02-02T07:42:05.744Z,5.12
2023-02-02T07:44:15.453Z,5.14
2023-02-02T07:46:19.272Z,5.12
2023-02-02T07:48:23.397Z,5.12
2023-02-02T07:50:27.922Z,5.12
2023-02-02T07:52:31.643Z,5.10
2023-02-02T07:54:35.158Z,5.10
2023-02-02T07:56:39.879Z,5.09
2023-02-02T07:58:44.885Z,5.10
2023-02-02T08:00:47.865Z,5.08
2023-02-02T08:02:51.032Z,5.03
2023-02-02T08:04:53.744Z,5.04
2023-02-02T08:06:56.537Z,5.06
2023-02-02T08:09:01.326Z,5.09
2023-02-02T08:11:05.609Z,5.09
2023-02-02T08:13:11.923Z,5.05
2023-02-02T08:15:15.062Z,5.04
2023-02-02T08:17:17.932Z,5.00
2023-02-02T08:19:20.752Z,4.97
2023-02-02T08:21:24.869Z,4.98
2023-02-02T08:23:29.267Z,4.98
2023-02-02T08:25:31.960Z,4.97
2023-02-02T08:27:36.919Z,4.94
2023-02-02T08:29:44.071Z,4.91
2023-02-02T08:31:46.842Z,4.91
2023-02-02T08:33:50.827Z,4.93
2023-02-02T08:35:53.514Z,4.92
2023-02-02T08:37:56.284Z,4.91
2023-02-02T08:39:59.210Z,4.91
2023-02-02T08:42:02.200Z,4.93
2023-02-02T08:44:11.672Z,4.93
2023-02-02T08:46:16.168Z,4.93
2023-02-02T08:48:21.690Z,4.93
2023-02-02T08:50:24.976Z,4.95
2023-02-02T08:52:27.963Z,4.97
2023-02-02T08:54:31.676Z,4.99
2023-02-02T08:56:34.502Z,5.01
2023-02-02T08:58:37.611Z,5.05
2023-02-02T09:00:41.740Z,5.08
2023-02-02T09:02:45.083Z,5.10
2023-02-02T09:04:49.168Z,5.12
2023-02-02T09:06:52.534Z,5.12
2023-02-02T09:08:55.759Z,5.08
2023-02-02T09:11:13.844Z,5.07
2023-02-02T09:13:16.712Z,5.08
2023-02-02T09:15:19.659Z,5.05
2023-02-02T09:17:24.327Z,5.00
2023-02-02T09:19:27.255Z,4.98
2023-02-02T09:21:30.930Z,4.99
2023-02-02T09:23:36.435Z,4.98
2023-02-02T09:25:39.675Z,5.00
2023-02-02T09:27:42.980Z,5.00
2023-02-02T09:29:45.888Z,5.00
2023-02-02T09:31:51.666Z,4.99
2023-02-02T09:33:55.681Z,4.97
2023-02-02T09:36:05.610Z,4.98
2023-02-02T09:38:10.623Z,4.96
2023-02-02T09:40:20.933Z,4.96
2023-02-02T09:42:29.501Z,4.94
2023-02-02T09:44:50.696Z,4.93
2023-02-02T09:47:21.689Z,4.91
2023-02-02T09:49:50.312Z,4.89
2023-02-02T09:52:03.464Z,4.86
2023-02-02T09:54:19.739Z,4.82
2023-02-02T09:56:43.437Z,4.78
2023-02-02T09:58:51.993Z,4.77
2023-02-02T10:01:06.837Z,4.76
2023-02-02T10:03:20.513Z,4.75
2023-02-02T10:05:29.517Z,4.76
2023-02-02T10:07:40.395Z,4.75
2023-02-02T10:09:49.375Z,4.75
2023-02-02T10:12:04.919Z,4.74
2023-02-02T10:14:33.120Z,4.73
2023-02-02T10:16:39.646Z,4.72
2023-02-02T10:18:52.150Z,4.72
2023-02-02T10:20:58.789Z,4.73
2023-02-02T10:23:18.653Z,4.71
2023-02-02T10:25:28.268Z,4.69
2023-02-02T10:27:38.595Z,4.68
2023-02-02T10:29:59.490Z,4.69
2023-02-02T10:32:09.663Z,4.71
2023-02-02T10:34:36.843Z,4.74
2023-02-02T10:36:55.174Z,4.78
2023-02-02T10:39:33.698Z,4.79
2023-02-02T10:41:49.768Z,4.81
2023-02-02T10:44:28.981Z,4.81
2023-02-02T10:46:40.931Z,4.84
2023-02-02T10:48:47.624Z,4.85
2023-02-02T10:50:56.388Z,4.87
2023-02-02T10:53:11.183Z,4.88
2023-02-02T10:55:13.938Z,4.87
2023-02-02T10:57:20.678Z,4.85
2023-02-02T10:59:33.649Z,4.82
2023-02-02T11:01:36.747Z,4.82
2023-02-02T11:03:47.804Z,4.84
2023-02-02T11:06:09.463Z,4.87
2023-02-02T11:08:14.961Z,4.92
2023-02-02T11:10:17.763Z,4.92
2023-02-02T11:12:27.408Z,4.90
2023-02-02T11:14:45.809Z,4.89
2023-02-02T11:17:01.457Z,4.89
2023-02-02T11:19:20.584Z,4.87
2023-02-02T11:21:33.894Z,4.87
2023-02-02T11:23:37.296Z,4.87
2023-02-02T11:25:40.466Z,4.86
2023-02-02T11:27:46.720Z,4.86
2023-02-02T11:29:52.475Z,4.83
2023-02-02T11:31:56.773Z,4.82
2023-02-02T11:34:29.808Z,4.83
2023-02-02T11:36:33.383Z,4.85
2023-02-02T11:38:36.640Z,4.86
2023-02-02T11:40:43.995Z,4.85
2023-02-02T11:42:48.794Z,4.85
2023-02-02T11:44:57.015Z,4.86
2023-02-02T11:47:02.053Z,4.86
2023-02-02T11:49:14.834Z,4.84
2023-02-02T11:51:26.847Z,4.84
2023-02-02T11:53:30.016Z,4.81
2023-02-02T11:55:36.199Z,4.79
2023-02-02T11:57:39.059Z,4.78
2023-02-02T11:59:43.776Z,4.76
2023-02-02T12:01:48.083Z,4.75
2023-02-02T12:03:55.347Z,4.72
2023-02-02T12:06:02.407Z,4.66
2023-02-02T12:08:07.676Z,4.63
2023-02-02T12:10:35.082Z,4.66
2023-02-02T12:13:11.310Z,4.69
2023-02-02T12:15:20.208Z,4.72
2023-02-02T12:17:25.599Z,4.74
2023-02-02T12:20:01.720Z,4.73
2023-02-02T12:22:20.690Z,4.72
2023-02-02T12:24:26.834Z,4.71
2023-02-02T12:26:37.930Z,4.69
2023-02-02T12:28:56.177Z,4.66
2023-02-02T12:31:19.336Z,4.63
2023-02-02T12:33:47.396Z,4.61
2023-02-02T12:36:12.860Z,4.61
2023-02-02T12:38:47.171Z,4.60
2023-02-02T12:41:11.469Z,4.59
2023-02-02T12:44:02.665Z,4.56
2023-02-02T12:46:27.115Z,4.61
2023-02-02T12:48:44.760Z,4.59
2023-02-02T12:51:17.347Z,4.57
2023-02-02T12:54:35.173Z,4.57
2023-02-02T12:56:31.852Z,4.55
2023-02-02T12:59:00.662Z,4.52
2023-02-02T13:01:28.190Z,4.51
2023-02-02T13:04:26.353Z,4.49
2023-02-02T13:07:11.135Z,4.49
2023-02-02T13:09:41.943Z,4.46
2023-02-02T13:11:54.993Z,4.43
2023-02-02T13:14:19.717Z,4.40
2023-02-02T13:16:24.556Z,4.36
2023-02-02T13:18:32.366Z,4.37
2023-02-02T13:20:40.942Z,4.40
2023-02-02T13:22:47.490Z,4.44
2023-02-02T13:24:53.924Z,4.48
2023-02-02T13:27:03.642Z,4.50
2023-02-02T13:29:28.031Z,4.51
2023-02-02T13:32:11.844Z,4.50
2023-02-02T13:34:23.468Z,4.48
2023-02-02T13:36:30.771Z,4.49
2023-02-02T13:38:34.990Z,4.52
2023-02-02T13:40:43.132Z,4.54
2023-02-02T13:43:15.623Z,4.54
2023-02-02T13:45:42.215Z,4.57
2023-02-02T13:47:54.821Z,4.59
2023-02-02T13:50:07.647Z,4.61
2023-02-02T13:52:25.505Z,4.61
2023-02-02T13:54:50.611Z,4.60
2023-02-02T13:56:59.220Z,4.62
2023-02-02T13:59:20.729Z,4.64
2023-02-02T14:01:27.028Z,4.63
2023-02-02T14:03:57.283Z,4.65
2023-02-02T14:06:19.432Z,4.67
2023-02-02T14:08:31.427Z,4.63
2023-02-02T14:10:44.437Z,4.63
2023-02-02T14:12:47.135Z,4.67
2023-02-02T14:14:49.872Z,4.69
2023-02-02T14:16:56.677Z,4.73
2023-02-02T14:19:03.869Z,4.78
2023-02-02T14:21:06.621Z,4.83
2023-02-02T14:23:54.091Z,4.87
2023-02-02T14:26:07.413Z,4.89
2023-02-02T14:28:13.556Z,4.92
2023-02-02T14:30:26.822Z,4.93
2023-02-02T14:32:40.794Z,4.92
2023-02-02T14:34:45.029Z,4.93
2023-02-02T14:37:16.795Z,4.92
2023-02-02T14:39:21.805Z,4.90
2023-02-02T14:42:16.191Z,4.91
2023-02-02T14:44:19.264Z,4.93
2023-02-02T14:46:34.346Z,4.96
2023-02-02T14:48:42.094Z,4.99
2023-02-02T14:50:49.637Z,5.03
2023-02-02T14:53:02.235Z,5.03
2023-02-02T14:55:16.369Z,5.04
2023-02-02T14:57:29.339Z,5.05
2023-02-02T14:59:36.917Z,5.07
2023-02-02T15:01:41.010Z,5.07
2023-02-02T15:03:46.941Z,5.07
2023-02-02T15:06:03.249Z,5.09
2023-02-02T15:08:23.442Z,5.07
2023-02-02T15:10:57.448Z,5.08
2023-02-02T15:13:12.590Z,5.06
2023-02-02T15:15:17.849Z,5.03
2023-02-02T15:17:34.351Z,5.05
2023-02-02T15:19:44.801Z,5.07
2023-02-02T15:21:51.163Z,5.09
2023-02-02T15:23:54.353Z,5.10
2023-02-02T15:26:06.298Z,5.10
2023-02-02T15:28:38.215Z,5.10
2023-02-02T15:30:45.450Z,5.09
2023-02-02T15:32:49.132Z,5.09
2023-02-02T15:34:58.330Z,5.09
2023-02-02T15:37:06.116Z,5.09
2023-02-02T15:39:34.407Z,5.08
2023-02-02T15:41:45.111Z,5.05
2023-02-02T15:43:48.544Z,5.05
2023-02-02T15:46:03.581Z,5.06
2023-02-02T15:48:21.190Z,5.09
2023-02-02T15:50:25.028Z,5.12
2023-02-02T15:52:38.297Z,5.13
2023-02-02T15:54:52.813Z,5.14
2023-02-02T15:57:00.300Z,5.15
2023-02-02T15:59:03.162Z,5.15
2023-02-02T16:01:16.265Z,5.15
2023-02-02T16:03:26.792Z,5.14
2023-02-02T16:05:29.662Z,5.14
2023-02-02T16:07:36.343Z,5.14
2023-02-02T16:09:41.675Z,5.15
2023-02-02T16:11:47.656Z,5.17
2023-02-02T16:14:05.437Z,5.19
2023-02-02T16:16:24.183Z,5.20
2023-02-02T16:18:27.451Z,5.18
2023-02-02T16:20:35.430Z,5.17
2023-02-02T16:22:40.545Z,5.15
2023-02-02T16:24:48.053Z,5.14
2023-02-02T16:26:53.183Z,5.12
2023-02-02T16:28:56.981Z,5.10
2023-02-02T16:31:03.959Z,5.09
2023-02-02T16:33:31.025Z,5.06
2023-02-02T16:35:36.808Z,5.04
2023-02-02T16:37:39.770Z,5.03
2023-02-02T16:39:44.037Z,5.00
2023-02-02T16:41:49.367Z,4.98
2023-02-02T16:43:54.981Z,5.00
2023-02-02T16:46:47.918Z,5.01
2023-02-02T16:49:00.722Z,5.02
2023-02-02T16:51:09.968Z,5.03
2023-02-02T16:53:24.409Z,5.04
2023-02-02T16:55:47.819Z,5.04
2023-02-02T16:57:53.191Z,5.03
2023-02-02T17:00:02.595Z,5.01
2023-02-02T17:02:21.073Z,4.98
2023-02-02T17:04:28.074Z,4.96
2023-02-02T17:06:49.970Z,4.94
2023-02-02T17:08:54.845Z,4.93
2023-02-02T17:11:04.481Z,4.91
2023-02-02T17:13:30.620Z,4.91
2023-02-02T17:15:35.976Z,4.93
2023-02-02T17:17:41.632Z,4.95
2023-02-02T17:19:44.962Z,4.95
2023-02-02T17:21:49.475Z,4.97
2023-02-02T17:23:56.853Z,4.97
2023-02-02T17:26:00.155Z,4.97
2023-02-02T17:28:06.316Z,4.96
2023-02-02T17:30:18.131Z,4.95
2023-02-02T17:32:23.775Z,4.94
2023-02-02T17:34:27.305Z,4.93
2023-02-02T17:36:33.435Z,4.93
2023-02-02T17:38:40.151Z,4.91
2023-02-02T17:40:44.371Z,4.91
2023-02-02T17:42:50.844Z,4.92
2023-02-02T17:44:53.845Z,4.94
2023-02-02T17:46:57.549Z,4.94
2023-02-02T17:49:01.374Z,4.94
2023-02-02T17:51:07.428Z,4.93
2023-02-02T17:53:17.808Z,4.93
2023-02-02T17:55:28.299Z,4.91
2023-02-02T17:57:40.400Z,4.89
2023-02-02T17:59:43.662Z,4.88
2023-02-02T18:01:47.286Z,4.85
2023-02-02T18:03:50.875Z,4.82
2023-02-02T18:05:59.607Z,4.80
2023-02-02T18:08:04.168Z,4.79
2023-02-02T18:10:10.088Z,4.80
2023-02-02T18:12:13.947Z,4.81
2023-02-02T18:14:18.629Z,4.84
2023-02-02T18:16:22.512Z,4.84
2023-02-02T18:18:27.807Z,4.84
2023-02-02T18:20:31.229Z,4.84
2023-02-02T18:22:37.072Z,4.85
2023-02-02T18:24:41.187Z,4.86
2023-02-02T18:26:46.444Z,4.85
2023-02-02T18:28:50.722Z,4.85
2023-02-02T18:30:54.188Z,4.85
2023-02-02T18:32:59.170Z,4.84
2023-02-02T18:35:05.581Z,4.83
2023-02-02T18:37:09.207Z,4.85
2023-02-02T18:39:12.511Z,4.85
2023-02-02T18:41:17.470Z,4.86
2023-02-02T18:43:20.846Z,4.86
2023-02-02T18:45:23.749Z,4.86
2023-02-02T18:47:27.690Z,4.85
2023-02-02T18:49:33.747Z,4.85
2023-02-02T18:51:37.980Z,4.85
2023-02-02T18:53:43.270Z,4.85
2023-02-02T18:55:47.208Z,4.85
2023-02-02T18:57:51.209Z,4.84
2023-02-02T18:59:55.136Z,4.85
2023-02-02T19:01:58.866Z,4.84
2023-02-02T19:04:03.586Z,4.86
2023-02-02T19:06:27.783Z,4.88
2023-02-02T19:08:33.704Z,4.89
2023-02-02T19:10:37.734Z,4.87
2023-02-02T19:12:41.347Z,4.87
2023-02-02T19:14:45.704Z,4.87
2023-02-02T19:16:48.640Z,4.86
2023-02-02T19:18:58.134Z,4.86
2023-02-02T19:21:01.332Z,4.86
2023-02-02T19:23:14.465Z,4.86
2023-02-02T19:25:18.302Z,4.84
2023-02-02T19:27:24.267Z,4.83
2023-02-02T19:29:36.055Z,4.79
2023-02-02T19:31:40.284Z,4.78
2023-02-02T19:33:49.275Z,4.77
2023-02-02T19:35:55.716Z,4.76
2023-02-02T19:38:02.488Z,4.76
2023-02-02T19:40:13.587Z,4.76
2023-02-02T19:42:17.484Z,4.75
2023-02-02T19:44:23.222Z,4.71
2023-02-02T19:46:29.529Z,4.72
2023-02-02T19:48:35.366Z,4.72
2023-02-02T19:50:41.503Z,4.71
2023-02-02T19:52:44.659Z,4.71
2023-02-02T19:54:49.086Z,4.71
2023-02-02T19:56:56.252Z,4.72
2023-02-02T19:59:00.005Z,4.72
2023-02-02T20:01:15.339Z,4.71
2023-02-02T20:03:42.931Z,4.73
2023-02-02T20:05:48.539Z,4.73
2023-02-02T20:07:56.182Z,4.75
2023-02-02T20:10:13.988Z,4.74
2023-02-02T20:12:27.501Z,4.73
2023-02-02T20:14:34.524Z,4.73
2023-02-02T20:16:42.158Z,4.72
2023-02-02T20:18:48.747Z,4.70
2023-02-02T20:20:57.095Z,4.69
2023-02-02T20:23:00.638Z,4.66
2023-02-02T20:25:09.411Z,4.64
2023-02-02T20:27:21.029Z,4.62
2023-02-02T20:29:40.086Z,4.58
2023-02-02T20:31:44.769Z,4.56
2023-02-02T20:33:52.352Z,4.51
2023-02-02T20:35:56.542Z,4.49
2023-02-02T20:38:00.235Z,4.49
2023-02-02T20:40:21.993Z,4.49
2023-02-02T20:42:25.867Z,4.52
2023-02-02T20:44:31.334Z,4.52
2023-02-02T20:46:34.906Z,4.54
2023-02-02T20:48:38.414Z,4.55
2023-02-02T20:50:42.796Z,4.56
2023-02-02T20:52:45.887Z,4.57
2023-02-02T20:54:52.422Z,4.59
2023-02-02T20:56:56.250Z,4.59
2023-02-02T20:58:59.642Z,4.59
2023-02-02T21:01:05.779Z,4.59
2023-02-02T21:03:13.230Z,4.58
2023-02-02T21:05:15.853Z,4.58
2023-02-02T21:07:24.175Z,4.58
2023-02-02T21:09:27.416Z,4.60
2023-02-02T21:11:32.144Z,4.61
2023-02-02T21:13:36.358Z,4.64
2023-02-02T21:15:39.548Z,4.65
2023-02-02T21:17:44.202Z,4.67
2023-02-02T21:19:47.215Z,4.69
2023-02-02T21:21:50.382Z,4.69
2023-02-02T21:23:53.625Z,4.70
2023-02-02T21:25:56.266Z,4.71
2023-02-02T21:28:00.294Z,4.71
2023-02-02T21:30:05.111Z,4.71
2023-02-02T21:32:09.561Z,4.74
2023-02-02T21:34:15.142Z,4.77
2023-02-02T21:36:32.893Z,4.79
2023-02-02T21:38:37.930Z,4.79
2023-02-02T21:40:42.645Z,4.79
2023-02-02T21:42:49.510Z,4.79
2023-02-02T21:45:02.916Z,4.78
2023-02-02T21:47:27.437Z,4.79
2023-02-02T21:49:38.186Z,4.78
2023-02-02T21:51:41.098Z,4.76
2023-02-02T21:53:44.173Z,4.72
2023-02-02T21:55:52.563Z,4.70
2023-02-02T21:57:59.660Z,4.67
2023-02-02T22:00:28.843Z,4.69
2023-02-02T22:02:43.351Z,4.70
2023-02-02T22:04:47.301Z,4.72
2023-02-02T22:07:10.468Z,4.72
2023-02-02T22:09:39.357Z,4.71
2023-02-02T22:12:04.772Z,4.71
2023-02-02T22:14:32.997Z,4.70
2023-02-02T22:16:41.531Z,4.68
2023-02-02T22:18:52.628Z,4.67
2023-02-02T22:20:56.690Z,4.65
2023-02-02T22:23:01.973Z,4.65
2023-02-02T22:25:17.062Z,4.64
2023-02-02T22:27:24.031Z,4.64
2023-02-02T22:29:30.195Z,4.63
2023-02-02T22:31:33.028Z,4.64
2023-02-02T22:33:35.991Z,4.65
2023-02-02T22:35:39.520Z,4.66
2023-02-02T22:37:43.698Z,4.67
2023-02-02T22:39:46.591Z,4.68
2023-02-02T22:41:49.378Z,4.69
2023-02-02T22:43:52.874Z,4.71
2023-02-02T22:45:55.960Z,4.72
2023-02-02T22:47:58.738Z,4.72
2023-02-02T22:50:01.556Z,4.73
2023-02-02T22:52:04.514Z,4.76
2023-02-02T22:54:07.402Z,4.81
2023-02-02T22:56:10.682Z,4.84
2023-02-02T22:58:13.617Z,4.88
2023-02-02T23:00:24.072Z,4.93
2023-02-02T23:02:27.220Z,4.98
2023-02-02T23:04:31.168Z,5.01
2023-02-02T23:06:33.886Z,5.05
2023-02-02T23:08:37.093Z,5.08
2023-02-02T23:10:40.089Z,5.10
2023-02-02T23:12:43.829Z,5.14
2023-02-02T23:14:47.197Z,5.19
2023-02-02T23:16:50.725Z,5.25
2023-02-02T23:18:53.615Z,5.30
2023-02-02T23:20:56.221Z,5.34
2023-02-02T23:22:59.062Z,5.38
2023-02-02T23:25:01.972Z,5.42
2023-02-02T23:27:04.739Z,5.46
2023-02-02T23:29:09.110Z,5.48
2023-02-02T23:31:13.776Z,5.49
2023-02-02T23:33:21.982Z,5.50
2023-02-02T23:35:24.693Z,5.52
2023-02-02T23:37:27.371Z,5.56
2023-02-02T23:39:30.633Z,5.60
2023-02-02T23:41:34.338Z,5.63
2023-02-02T23:43:37.389Z,5.66
2023-02-02T23:45:40.804Z,5.68
2023-02-02T23:47:45.070Z,5.69
2023-02-02T23:49:51.384Z,5.71
2023-02-02T23:51:55.035Z,5.74
2023-02-02T23:54:00.932Z,5.78
2023-02-02T23:56:05.339Z,5.79
2023-02-02T23:58:10.118Z,5.81
